createdAt,value
2019-05-14T00:00:08.168Z,103001.31
2019-05-14T00:01:43.694Z,103001.20
2019-05-14T00:03:18.864Z,102997.97
2019-05-14T00:04:53.557Z,102995.83
2019-05-14T00:06:31.033Z,102999.98
2019-05-14T00:08:05.302Z,102995.71
2019-05-14T00:09:41.340Z,102999.87
2019-05-14T00:11:16.307Z,102992.59
2019-05-14T00:12:51.689Z,102990.22
2019-05-14T00:14:38.952Z,102992.02
2019-05-14T00:16:04.298Z,102990.34
2019-05-14T00:17:41.371Z,102993.61
2019-05-14T00:19:16.019Z,102997.14
2019-05-14T00:20:51.810Z,102986.18
2019-05-14T00:22:27.022Z,102990.40
2019-05-14T00:24:01.937Z,102989.50
2019-05-14T00:25:37.281Z,102989.83
2019-05-14T00:27:11.988Z,102993.35
2019-05-14T00:28:48.295Z,102989.71
2019-05-14T00:30:22.928Z,102989.32
2019-05-14T00:31:58.189Z,102983.97
2019-05-14T00:33:32.895Z,102991.36
2019-05-14T00:35:08.360Z,102994.69
2019-05-14T00:36:42.980Z,102987.75
2019-05-14T00:38:18.183Z,102997.09
2019-05-14T00:39:52.856Z,102993.05
2019-05-14T00:41:28.111Z,102998.20
2019-05-14T00:43:02.817Z,102999.80
2019-05-14T00:44:51.658Z,102995.75
2019-05-14T00:46:15.587Z,102987.31
2019-05-14T00:47:52.526Z,102992.48
2019-05-14T00:49:27.406Z,102993.81
2019-05-14T00:51:02.687Z,102992.17
2019-05-14T00:52:37.356Z,102991.98
2019-05-14T00:54:12.629Z,102995.75
2019-05-14T00:55:47.279Z,102996.77
2019-05-14T00:57:22.479Z,102991.98
2019-05-14T00:58:57.131Z,102988.30
2019-05-14T01:00:32.414Z,102985.97
2019-05-14T01:02:07.046Z,102987.95
2019-05-14T01:03:42.233Z,102985.05
2019-05-14T01:05:16.865Z,102984.90
2019-05-14T01:06:52.349Z,102985.36
2019-05-14T01:08:26.986Z,102984.14
2019-05-14T01:10:02.188Z,102983.83
2019-05-14T01:11:38.098Z,102986.79
2019-05-14T01:13:13.273Z,102990.45
2019-05-14T01:14:47.934Z,102985.79
2019-05-14T01:16:23.145Z,102990.91
2019-05-14T01:17:57.779Z,102982.95
2019-05-14T01:19:32.967Z,102985.67
2019-05-14T01:21:07.620Z,102981.17
2019-05-14T01:22:43.791Z,102980.81
2019-05-14T01:24:18.444Z,102979.16
2019-05-14T01:25:53.634Z,102976.08
2019-05-14T01:27:28.280Z,102973.55
2019-05-14T01:29:03.459Z,102976.78
2019-05-14T01:30:38.129Z,102982.75
2019-05-14T01:32:13.337Z,102979.09
2019-05-14T01:33:47.977Z,102979.66
2019-05-14T01:35:23.151Z,102981.86
2019-05-14T01:36:57.798Z,102977.34
2019-05-14T01:38:32.996Z,102974.05
2019-05-14T01:40:07.714Z,102976.63
2019-05-14T01:41:42.920Z,102973.11
2019-05-14T01:43:17.626Z,102967.42
2019-05-14T01:44:52.914Z,102973.98
2019-05-14T01:46:27.534Z,102966.73
2019-05-14T01:48:02.750Z,102966.01
2019-05-14T01:49:37.401Z,102968.92
2019-05-14T01:51:12.578Z,102967.84
2019-05-14T01:52:47.217Z,102964.84
2019-05-14T01:54:22.422Z,102965.52
2019-05-14T01:55:57.064Z,102960.79
2019-05-14T01:57:32.267Z,102959.53
2019-05-14T01:59:06.890Z,102964.19
2019-05-14T02:00:42.085Z,102962.89
2019-05-14T02:02:16.829Z,102960.55
2019-05-14T02:03:52.035Z,102960.41
2019-05-14T02:05:26.644Z,102952.42
2019-05-14T02:07:02.431Z,102950.52
2019-05-14T02:08:37.168Z,102948.20
2019-05-14T02:10:13.615Z,102950.36
2019-05-14T02:11:48.274Z,102955.81
2019-05-14T02:13:23.458Z,102951.83
2019-05-14T02:14:58.124Z,102948.28
2019-05-14T02:16:33.370Z,102954.77
2019-05-14T02:18:11.041Z,102957.88
2019-05-14T02:19:45.880Z,102947.72
2019-05-14T02:21:22.682Z,102951.69
2019-05-14T02:22:57.450Z,102950.05
2019-05-14T02:24:32.370Z,102948.94
2019-05-14T02:26:07.677Z,102950.36
2019-05-14T02:27:42.328Z,102947.72
2019-05-14T02:29:17.526Z,102946.61
2019-05-14T02:30:58.081Z,102949.86
2019-05-14T02:32:29.919Z,102944.39
2019-05-14T02:34:05.599Z,102942.48
2019-05-14T02:35:40.934Z,102940.08
2019-05-14T02:37:15.698Z,102943.22
2019-05-14T02:38:51.023Z,102937.70
2019-05-14T02:40:25.783Z,102944.96
2019-05-14T02:42:01.049Z,102945.39
2019-05-14T02:43:35.682Z,102944.20
2019-05-14T02:45:10.971Z,102946.50
2019-05-14T02:46:45.638Z,102951.19
2019-05-14T02:48:20.839Z,102950.19
2019-05-14T02:49:58.741Z,102942.80
2019-05-14T02:51:32.363Z,102947.22
2019-05-14T02:53:09.957Z,102946.22
2019-05-14T02:54:43.942Z,102947.86
2019-05-14T02:56:20.435Z,102940.48
2019-05-14T02:57:55.525Z,102946.46
2019-05-14T02:59:30.738Z,102948.86
2019-05-14T03:01:09.266Z,102949.97
2019-05-14T03:02:42.590Z,102946.99
2019-05-14T03:04:19.745Z,102942.67
2019-05-14T03:05:54.452Z,102943.31
2019-05-14T03:07:29.934Z,102948.72
2019-05-14T03:09:08.952Z,102946.68
2019-05-14T03:10:42.839Z,102948.75
2019-05-14T03:12:19.380Z,102946.39
2019-05-14T03:13:54.510Z,102951.58
2019-05-14T03:15:29.507Z,102948.94
2019-05-14T03:17:04.964Z,102948.44
2019-05-14T03:18:39.916Z,102952.80
2019-05-14T03:20:15.399Z,102948.43
2019-05-14T03:21:50.521Z,102946.28
2019-05-14T03:23:25.860Z,102948.56
2019-05-14T03:25:00.555Z,102947.61
2019-05-14T03:26:35.733Z,102941.16
2019-05-14T03:28:10.579Z,102954.48
2019-05-14T03:29:46.024Z,102947.79
2019-05-14T03:31:22.613Z,102953.09
2019-05-14T03:33:02.835Z,102955.92
2019-05-14T03:34:34.014Z,102951.38
2019-05-14T03:36:17.227Z,102951.08
2019-05-14T03:37:45.605Z,102953.41
2019-05-14T03:39:20.824Z,102949.22
2019-05-14T03:40:55.546Z,102947.29
2019-05-14T03:42:30.805Z,102949.44
2019-05-14T03:44:05.540Z,102949.36
2019-05-14T03:45:40.802Z,102942.58
2019-05-14T03:47:15.542Z,102949.14
2019-05-14T03:48:51.123Z,102958.14
2019-05-14T03:50:25.762Z,102958.00
2019-05-14T03:52:01.026Z,102957.89
2019-05-14T03:53:54.413Z,102952.20
2019-05-14T03:55:13.991Z,102955.42
2019-05-14T03:56:49.775Z,102951.18
2019-05-14T03:58:25.198Z,102957.88
2019-05-14T04:00:00.170Z,102955.56
2019-05-14T04:01:35.595Z,102954.56
2019-05-14T04:03:10.514Z,102956.38
2019-05-14T04:04:45.819Z,102954.34
2019-05-14T04:06:20.898Z,102959.25
2019-05-14T04:07:59.805Z,102959.63
2019-05-14T04:09:34.408Z,102952.99
2019-05-14T04:11:10.482Z,102958.73
2019-05-14T04:12:49.179Z,102956.17
2019-05-14T04:14:24.562Z,102955.30
2019-05-14T04:16:02.505Z,102953.16
2019-05-14T04:17:42.267Z,102955.44
2019-05-14T04:19:18.999Z,102948.94
2019-05-14T04:20:58.947Z,102944.56
2019-05-14T04:22:33.696Z,102945.13
2019-05-14T04:24:11.005Z,102942.63
2019-05-14T04:25:49.662Z,102941.72
2019-05-14T04:27:24.317Z,102930.27
2019-05-14T04:29:00.702Z,102937.03
2019-05-14T04:30:39.903Z,102935.14
2019-05-14T04:32:15.841Z,102937.84
2019-05-14T04:33:51.603Z,102941.64
2019-05-14T04:35:29.469Z,102949.41
2019-05-14T04:37:03.348Z,102953.36
2019-05-14T04:38:41.022Z,102959.42
2019-05-14T04:40:15.168Z,102959.42
2019-05-14T04:41:49.992Z,102948.77
2019-05-14T04:43:25.268Z,102955.25
2019-05-14T04:45:05.215Z,102949.33
2019-05-14T04:46:39.538Z,102949.33
2019-05-14T04:48:31.031Z,102950.30
2019-05-14T04:49:50.891Z,102960.12
2019-05-14T04:51:25.743Z,102959.26
2019-05-14T04:53:02.105Z,102969.72
2019-05-14T04:54:39.392Z,102955.06
2019-05-14T04:56:13.809Z,102963.83
2019-05-14T04:57:49.982Z,102969.50
2019-05-14T04:59:25.612Z,102964.28
2019-05-14T05:01:00.962Z,102971.98
2019-05-14T05:02:39.472Z,102964.20
2019-05-14T05:04:12.671Z,102974.94
2019-05-14T05:05:49.946Z,102978.84
2019-05-14T05:07:24.313Z,102971.20
2019-05-14T05:09:00.196Z,102967.30
2019-05-14T05:10:34.927Z,102976.73
2019-05-14T05:12:10.162Z,102969.15
2019-05-14T05:13:44.800Z,102972.41
2019-05-14T05:15:20.071Z,102976.77
2019-05-14T05:16:54.757Z,102978.38
2019-05-14T05:18:30.022Z,102971.55
2019-05-14T05:20:05.393Z,102975.00
2019-05-14T05:21:40.580Z,102974.75
2019-05-14T05:23:15.231Z,102966.39
2019-05-14T05:24:50.423Z,102965.00
2019-05-14T05:26:25.061Z,102976.00
2019-05-14T05:28:00.283Z,102975.53
2019-05-14T05:29:34.925Z,102970.64
2019-05-14T05:31:10.125Z,102969.87
2019-05-14T05:32:44.874Z,102972.84
2019-05-14T05:34:20.097Z,102976.28
2019-05-14T05:35:54.777Z,102973.30
2019-05-14T05:37:29.991Z,102970.22
2019-05-14T05:39:08.624Z,102969.50
2019-05-14T05:40:43.971Z,102970.31
2019-05-14T05:42:18.970Z,102979.41
2019-05-14T05:43:54.376Z,102979.12
2019-05-14T05:45:29.158Z,102982.25
2019-05-14T05:47:04.348Z,102985.00
2019-05-14T05:48:39.205Z,102994.53
2019-05-14T05:50:14.816Z,102979.90
2019-05-14T05:51:49.458Z,102988.98
2019-05-14T05:53:24.650Z,102984.59
2019-05-14T05:54:59.325Z,102990.27
2019-05-14T05:56:34.504Z,102989.96
2019-05-14T05:58:09.199Z,102987.44
2019-05-14T05:59:44.412Z,102979.13
2019-05-14T06:01:19.779Z,102983.86
2019-05-14T06:02:55.298Z,102980.58
2019-05-14T06:04:29.925Z,102977.84
2019-05-14T06:06:05.261Z,102982.20
2019-05-14T06:07:39.963Z,102977.02
2019-05-14T06:09:15.145Z,102980.77
2019-05-14T06:10:50.043Z,102987.22
2019-05-14T06:12:25.280Z,102976.30
2019-05-14T06:13:59.921Z,102980.55
2019-05-14T06:15:45.501Z,102979.92
2019-05-14T06:17:11.492Z,102985.83
2019-05-14T06:18:48.440Z,102976.92
2019-05-14T06:20:23.227Z,102968.36
2019-05-14T06:21:59.660Z,102970.63
2019-05-14T06:23:34.805Z,102976.02
2019-05-14T06:25:11.385Z,102975.98
2019-05-14T06:26:48.805Z,102973.58
2019-05-14T06:28:23.360Z,102973.66
2019-05-14T06:29:58.420Z,102970.17
2019-05-14T06:31:33.666Z,102974.45
2019-05-14T06:33:09.307Z,102976.08
2019-05-14T06:34:44.818Z,102974.73
2019-05-14T06:36:19.886Z,102979.28
2019-05-14T06:37:55.228Z,102972.80
2019-05-14T06:39:29.957Z,102973.52
2019-05-14T06:41:05.228Z,102971.75
2019-05-14T06:42:39.871Z,102972.05
2019-05-14T06:44:15.111Z,102974.73
2019-05-14T06:45:49.801Z,102976.77
2019-05-14T06:47:24.985Z,102971.56
2019-05-14T06:48:59.933Z,102976.70
2019-05-14T06:50:35.122Z,102972.08
2019-05-14T06:52:09.782Z,102976.98
2019-05-14T06:53:44.998Z,102972.77
2019-05-14T06:55:19.685Z,102971.88
2019-05-14T06:56:54.898Z,102966.20
2019-05-14T06:58:29.978Z,102973.17
2019-05-14T07:00:08.355Z,102977.56
2019-05-14T07:01:43.047Z,102976.91
2019-05-14T07:03:18.224Z,102978.95
2019-05-14T07:04:53.846Z,102977.83
2019-05-14T07:06:29.285Z,102972.55
2019-05-14T07:08:04.256Z,102975.83
2019-05-14T07:09:39.543Z,102975.71
2019-05-14T07:11:14.267Z,102982.66
2019-05-14T07:12:50.048Z,102966.14
2019-05-14T07:14:24.798Z,102968.91
2019-05-14T07:16:01.065Z,102972.02
2019-05-14T07:17:38.172Z,102964.27
2019-05-14T07:19:15.721Z,102973.18
2019-05-14T07:20:49.088Z,102969.34
2019-05-14T07:22:24.519Z,102967.70
2019-05-14T07:23:59.462Z,102974.00
2019-05-14T07:25:34.775Z,102976.00
2019-05-14T07:27:09.752Z,102969.47
2019-05-14T07:28:45.045Z,102978.02
2019-05-14T07:30:20.066Z,102974.47
2019-05-14T07:31:55.262Z,102971.98
2019-05-14T07:33:29.908Z,102968.99
2019-05-14T07:35:05.961Z,102977.77
2019-05-14T07:36:40.594Z,102970.42
2019-05-14T07:38:15.781Z,102969.02
2019-05-14T07:39:50.414Z,102961.16
2019-05-14T07:41:28.292Z,102970.44
2019-05-14T07:43:01.942Z,102970.98
2019-05-14T07:44:39.059Z,102972.44
2019-05-14T07:46:13.494Z,102965.10
2019-05-14T07:47:49.355Z,102971.59
2019-05-14T07:49:24.113Z,102975.08
2019-05-14T07:51:00.150Z,102967.17
2019-05-14T07:52:35.007Z,102972.06
2019-05-14T07:54:10.185Z,102972.62
2019-05-14T07:55:44.967Z,102962.22
2019-05-14T07:57:20.184Z,102964.27
2019-05-14T07:58:58.114Z,102965.86
2019-05-14T08:00:32.797Z,102962.85
2019-05-14T08:02:09.356Z,102957.12
2019-05-14T08:03:44.344Z,102951.38
2019-05-14T08:05:19.094Z,102958.00
2019-05-14T08:06:54.308Z,102960.02
2019-05-14T08:08:29.402Z,102961.91
2019-05-14T08:10:05.572Z,102953.74
2019-05-14T08:11:40.241Z,102944.20
2019-05-14T08:13:15.439Z,102952.15
2019-05-14T08:15:14.277Z,102947.79
2019-05-14T08:16:28.806Z,102941.87
2019-05-14T08:18:04.522Z,102943.20
2019-05-14T08:19:39.789Z,102935.14
2019-05-14T08:21:14.463Z,102924.46
2019-05-14T08:22:49.671Z,102922.59
2019-05-14T08:24:27.106Z,102922.73
2019-05-14T08:26:03.634Z,102922.76
2019-05-14T08:27:38.854Z,102922.05
2019-05-14T08:29:14.341Z,102915.34
2019-05-14T08:30:49.276Z,102910.00
2019-05-14T08:32:25.440Z,102920.95
2019-05-14T08:34:04.711Z,102916.75
2019-05-14T08:35:39.274Z,102907.72
2019-05-14T08:37:13.404Z,102913.48
2019-05-14T08:38:50.038Z,102915.10
2019-05-14T08:40:25.061Z,102899.51
2019-05-14T08:42:03.999Z,102899.96
2019-05-14T08:43:39.367Z,102904.31
2019-05-14T08:45:14.127Z,102905.94
2019-05-14T08:46:48.857Z,102888.66
2019-05-14T08:48:24.069Z,102892.92
2019-05-14T08:49:59.845Z,102888.39
2019-05-14T08:51:35.389Z,102880.96
2019-05-14T08:53:10.060Z,102879.44
2019-05-14T08:54:45.302Z,102887.31
2019-05-14T08:56:19.948Z,102885.69
2019-05-14T08:57:55.219Z,102879.92
2019-05-14T08:59:29.856Z,102877.43
2019-05-14T09:01:05.145Z,102893.51
2019-05-14T09:02:39.864Z,102885.96
2019-05-14T09:04:15.151Z,102886.58
2019-05-14T09:05:49.811Z,102875.50
2019-05-14T09:07:25.027Z,102890.41
2019-05-14T09:08:59.818Z,102878.31
2019-05-14T09:10:34.978Z,102871.41
2019-05-14T09:12:12.469Z,102862.91
2019-05-14T09:13:48.890Z,102869.90
2019-05-14T09:15:22.860Z,102865.88
2019-05-14T09:16:59.892Z,102876.94
2019-05-14T09:18:34.388Z,102868.00
2019-05-14T09:20:11.598Z,102872.67
2019-05-14T09:21:46.014Z,102860.33
2019-05-14T09:23:21.207Z,102864.00
2019-05-14T09:24:55.924Z,102851.80
2019-05-14T09:26:31.214Z,102861.16
2019-05-14T09:28:05.854Z,102854.65
2019-05-14T09:29:41.045Z,102850.49
2019-05-14T09:31:15.715Z,102849.44
2019-05-14T09:32:51.016Z,102841.59
2019-05-14T09:34:25.634Z,102846.20
2019-05-14T09:36:14.767Z,102853.75
2019-05-14T09:37:39.633Z,102846.06
2019-05-14T09:39:14.183Z,102851.59
2019-05-14T09:40:49.088Z,102856.67
2019-05-14T09:42:24.324Z,102842.20
2019-05-14T09:43:58.976Z,102834.13
2019-05-14T09:45:34.186Z,102842.36
2019-05-14T09:47:08.821Z,102825.67
2019-05-14T09:48:44.106Z,102829.63
2019-05-14T09:50:23.191Z,102833.47
2019-05-14T09:51:58.214Z,102825.84
2019-05-14T09:53:32.339Z,102830.17
2019-05-14T09:55:09.386Z,102825.92
2019-05-14T09:56:45.446Z,102826.74
2019-05-14T09:58:20.762Z,102826.16
2019-05-14T09:59:58.641Z,102820.53
2019-05-14T10:01:33.583Z,102821.73
2019-05-14T10:03:09.698Z,102824.48
2019-05-14T10:04:48.762Z,102832.67
2019-05-14T10:06:22.546Z,102821.62
2019-05-14T10:07:59.433Z,102825.02
2019-05-14T10:09:34.077Z,102820.64
2019-05-14T10:11:09.375Z,102825.10
2019-05-14T10:12:52.848Z,102808.92
2019-05-14T10:14:20.916Z,102817.04
2019-05-14T10:15:55.582Z,102816.45
2019-05-14T10:17:30.797Z,102803.73
2019-05-14T10:19:05.536Z,102807.59
2019-05-14T10:20:45.285Z,102805.86
2019-05-14T10:22:19.744Z,102805.73
2019-05-14T10:23:54.053Z,102808.83
2019-05-14T10:25:28.827Z,102808.87
2019-05-14T10:27:04.171Z,102804.80
2019-05-14T10:28:43.073Z,102797.14
2019-05-14T10:30:17.992Z,102803.41
2019-05-14T10:31:52.318Z,102796.09
2019-05-14T10:33:28.724Z,102800.41
2019-05-14T10:35:05.160Z,102794.66
2019-05-14T10:36:40.362Z,102788.18
2019-05-14T10:38:15.101Z,102796.44
2019-05-14T10:39:50.302Z,102781.28
2019-05-14T10:41:25.013Z,102786.73
2019-05-14T10:43:00.201Z,102781.03
2019-05-14T10:44:34.929Z,102789.33
2019-05-14T10:46:10.191Z,102787.72
2019-05-14T10:47:44.905Z,102789.62
2019-05-14T10:49:23.718Z,102792.30
2019-05-14T10:51:02.925Z,102788.39
2019-05-14T10:52:33.348Z,102784.03
2019-05-14T10:54:21.127Z,102773.13
2019-05-14T10:55:44.872Z,102765.39
2019-05-14T10:57:19.529Z,102764.92
2019-05-14T10:58:54.709Z,102766.58
2019-05-14T11:00:29.702Z,102770.05
2019-05-14T11:02:04.873Z,102774.39
2019-05-14T11:03:39.534Z,102761.66
2019-05-14T11:05:14.809Z,102756.61
2019-05-14T11:06:49.470Z,102749.20
2019-05-14T11:08:24.645Z,102754.95
2019-05-14T11:09:59.332Z,102759.65
2019-05-14T11:11:34.544Z,102755.05
2019-05-14T11:13:09.265Z,102757.92
2019-05-14T11:14:44.464Z,102749.09
2019-05-14T11:16:19.254Z,102747.09
2019-05-14T11:17:54.449Z,102744.63
2019-05-14T11:19:29.162Z,102749.20
2019-05-14T11:21:18.746Z,102742.91
2019-05-14T11:22:40.779Z,102745.78
2019-05-14T11:24:18.644Z,102743.44
2019-05-14T11:25:52.380Z,102737.06
2019-05-14T11:27:29.217Z,102725.54
2019-05-14T11:29:04.047Z,102725.82
2019-05-14T11:30:39.339Z,102723.19
2019-05-14T11:32:14.052Z,102725.95
2019-05-14T11:33:50.032Z,102724.37
2019-05-14T11:35:24.837Z,102723.98
2019-05-14T11:37:00.140Z,102720.14
2019-05-14T11:38:37.418Z,102721.50
2019-05-14T11:40:11.859Z,102723.69
2019-05-14T11:41:46.483Z,102719.83
2019-05-14T11:43:22.363Z,102726.13
2019-05-14T11:44:58.273Z,102718.59
2019-05-14T11:46:43.552Z,102711.45
2019-05-14T11:48:10.017Z,102718.99
2019-05-14T11:49:45.226Z,102720.55
2019-05-14T11:51:40.517Z,102702.72
2019-05-14T11:52:58.471Z,102701.44
2019-05-14T11:54:33.091Z,102699.69
2019-05-14T11:56:08.819Z,102710.69
2019-05-14T11:57:43.688Z,102711.45
2019-05-14T11:59:19.124Z,102715.18
2019-05-14T12:00:53.701Z,102718.84
2019-05-14T12:02:29.199Z,102705.03
2019-05-14T12:04:03.887Z,102699.66
2019-05-14T12:05:39.161Z,102698.03
2019-05-14T12:07:15.224Z,102697.64
2019-05-14T12:08:50.470Z,102701.79
2019-05-14T12:10:25.111Z,102695.30
2019-05-14T12:12:00.305Z,102697.99
2019-05-14T12:13:34.935Z,102701.94
2019-05-14T12:15:10.600Z,102698.77
2019-05-14T12:16:45.230Z,102690.20
2019-05-14T12:18:20.422Z,102675.21
2019-05-14T12:19:55.066Z,102684.83
2019-05-14T12:21:30.345Z,102684.58
2019-05-14T12:23:05.070Z,102686.73
2019-05-14T12:24:40.412Z,102669.48
2019-05-14T12:26:15.120Z,102678.31
2019-05-14T12:27:50.328Z,102679.47
2019-05-14T12:29:24.975Z,102686.22
2019-05-14T12:31:00.189Z,102670.98
2019-05-14T12:32:34.812Z,102687.27
2019-05-14T12:34:10.013Z,102667.84
2019-05-14T12:35:44.782Z,102664.06
2019-05-14T12:37:19.988Z,102664.30
2019-05-14T12:38:54.641Z,102654.44
2019-05-14T12:40:29.918Z,102657.16
2019-05-14T12:42:04.635Z,102648.87
2019-05-14T12:43:43.607Z,102653.30
2019-05-14T12:45:19.151Z,102642.73
2019-05-14T12:46:54.007Z,102641.58
2019-05-14T12:48:30.011Z,102651.67
2019-05-14T12:50:09.404Z,102639.67
2019-05-14T12:51:43.673Z,102646.56
2019-05-14T12:53:19.892Z,102641.05
2019-05-14T12:54:54.761Z,102657.09
2019-05-14T12:56:29.968Z,102639.84
2019-05-14T12:58:04.715Z,102652.57
2019-05-14T12:59:39.903Z,102648.09
2019-05-14T13:01:15.335Z,102638.70
2019-05-14T13:02:50.524Z,102627.34
2019-05-14T13:04:25.142Z,102624.27
2019-05-14T13:06:00.431Z,102633.73
2019-05-14T13:07:35.072Z,102646.84
2019-05-14T13:09:10.363Z,102645.41
2019-05-14T13:10:45.196Z,102635.50
2019-05-14T13:12:20.479Z,102618.52
2019-05-14T13:13:55.140Z,102614.16
2019-05-14T13:15:30.420Z,102618.56
2019-05-14T13:17:05.041Z,102623.88
2019-05-14T13:18:40.237Z,102604.23
2019-05-14T13:20:15.677Z,102612.38
2019-05-14T13:22:08.808Z,102606.95
2019-05-14T13:23:29.291Z,102615.56
2019-05-14T13:25:04.395Z,102603.55
2019-05-14T13:26:39.273Z,102602.70
2019-05-14T13:28:14.609Z,102597.12
2019-05-14T13:29:49.628Z,102590.73
2019-05-14T13:31:24.846Z,102599.69
2019-05-14T13:32:59.490Z,102595.86
2019-05-14T13:34:34.679Z,102594.26
2019-05-14T13:36:09.358Z,102584.78
2019-05-14T13:37:44.593Z,102581.91
2019-05-14T13:39:19.581Z,102581.90
2019-05-14T13:40:54.844Z,102580.82
2019-05-14T13:42:29.783Z,102569.48
2019-05-14T13:44:18.512Z,102581.98
2019-05-14T13:45:41.662Z,102584.31
2019-05-14T13:47:18.256Z,102565.56
2019-05-14T13:48:52.967Z,102569.78
2019-05-14T13:50:29.230Z,102570.16
2019-05-14T13:52:04.381Z,102569.64
2019-05-14T13:53:40.549Z,102573.00
2019-05-14T13:55:15.249Z,102564.42
2019-05-14T13:56:50.635Z,102565.44
2019-05-14T13:58:25.392Z,102551.78
2019-05-14T14:00:00.613Z,102552.64
2019-05-14T14:01:36.372Z,102560.35
2019-05-14T14:03:11.625Z,102563.12
2019-05-14T14:04:48.234Z,102557.19
2019-05-14T14:06:23.288Z,102555.63
2019-05-14T14:07:59.057Z,102554.28
2019-05-14T14:09:34.331Z,102545.91
2019-05-14T14:11:12.720Z,102536.74
2019-05-14T14:12:49.306Z,102543.53
2019-05-14T14:14:22.374Z,102545.66
2019-05-14T14:15:58.803Z,102548.30
2019-05-14T14:17:33.656Z,102544.77
2019-05-14T14:19:08.922Z,102548.52
2019-05-14T14:20:43.650Z,102543.57
2019-05-14T14:22:19.897Z,102542.98
2019-05-14T14:23:54.533Z,102517.69
2019-05-14T14:25:29.904Z,102517.69
2019-05-14T14:27:04.677Z,102542.47
2019-05-14T14:28:39.947Z,102537.89
2019-05-14T14:30:15.146Z,102519.28
2019-05-14T14:31:50.335Z,102506.98
2019-05-14T14:33:24.995Z,102506.87
2019-05-14T14:35:00.204Z,102506.31
2019-05-14T14:36:34.929Z,102499.01
2019-05-14T14:38:10.134Z,102506.88
2019-05-14T14:39:44.893Z,102496.03
2019-05-14T14:41:20.084Z,102499.57
2019-05-14T14:42:54.802Z,102497.41
2019-05-14T14:44:30.066Z,102494.08
2019-05-14T14:46:13.106Z,102491.88
2019-05-14T14:47:42.856Z,102494.05
2019-05-14T14:49:19.009Z,102498.21
2019-05-14T14:50:54.598Z,102505.16
2019-05-14T14:52:29.365Z,102508.39
2019-05-14T14:54:10.666Z,102501.61
2019-05-14T14:55:40.938Z,102501.75
2019-05-14T14:57:19.958Z,102496.44
2019-05-14T14:58:53.882Z,102491.27
2019-05-14T15:00:29.489Z,102490.39
2019-05-14T15:02:04.311Z,102490.39
2019-05-14T15:03:39.531Z,102475.32
2019-05-14T15:05:14.764Z,102476.70
2019-05-14T15:06:50.846Z,102474.05
2019-05-14T15:08:29.045Z,102481.53
2019-05-14T15:10:02.915Z,102491.89
2019-05-14T15:11:39.720Z,102483.27
2019-05-14T15:13:14.574Z,102493.67
2019-05-14T15:14:49.223Z,102479.23
2019-05-14T15:16:24.403Z,102462.57
2019-05-14T15:17:59.065Z,102473.87
2019-05-14T15:19:34.261Z,102483.83
2019-05-14T15:21:09.807Z,102478.15
2019-05-14T15:22:49.173Z,102473.55
2019-05-14T15:24:22.743Z,102467.89
2019-05-14T15:25:58.961Z,102475.45
2019-05-14T15:27:33.848Z,102472.98
2019-05-14T15:29:09.894Z,102460.37
2019-05-14T15:30:44.817Z,102463.63
2019-05-14T15:32:20.114Z,102463.63
2019-05-14T15:33:54.780Z,102460.45
2019-05-14T15:35:30.049Z,102468.77
2019-05-14T15:37:04.745Z,102466.41
2019-05-14T15:38:40.023Z,102458.94
2019-05-14T15:40:15.263Z,102457.18
2019-05-14T15:41:50.500Z,102457.18
2019-05-14T15:43:25.192Z,102449.82
2019-05-14T15:45:00.425Z,102430.11
2019-05-14T15:46:41.577Z,102430.11
2019-05-14T15:48:13.164Z,102458.45
2019-05-14T15:49:48.840Z,102458.45
2019-05-14T15:51:25.341Z,102451.87
2019-05-14T15:53:00.012Z,102446.09
2019-05-14T15:54:45.526Z,102461.74
2019-05-14T15:56:11.674Z,102454.38
2019-05-14T15:57:47.070Z,102445.31
2019-05-14T15:59:21.735Z,102444.91
2019-05-14T16:01:00.902Z,102444.91
2019-05-14T16:02:33.309Z,102449.51
2019-05-14T16:04:11.410Z,102444.43
2019-05-14T16:05:45.071Z,102437.28
2019-05-14T16:07:20.277Z,102437.28
2019-05-14T16:08:54.913Z,102440.03
2019-05-14T16:10:31.265Z,102441.16
2019-05-14T16:12:06.282Z,102432.04
2019-05-14T16:13:41.496Z,102441.48
2019-05-14T16:15:18.723Z,102450.04
2019-05-14T16:16:53.318Z,102441.67
2019-05-14T16:18:29.075Z,102436.33
2019-05-14T16:20:04.957Z,102448.41
2019-05-14T16:21:39.672Z,102430.11
2019-05-14T16:23:14.950Z,102419.81
2019-05-14T16:24:56.160Z,102445.80
2019-05-14T16:26:28.973Z,102441.16
2019-05-14T16:28:02.768Z,102445.50
2019-05-14T16:29:45.120Z,102446.22
2019-05-14T16:31:14.434Z,102438.61
2019-05-14T16:32:49.643Z,102437.03
2019-05-14T16:34:24.278Z,102442.20
2019-05-14T16:35:59.586Z,102432.77
2019-05-14T16:37:34.221Z,102432.77
2019-05-14T16:39:09.809Z,102428.88
2019-05-14T16:40:48.740Z,102431.72
2019-05-14T16:42:23.007Z,102431.72
2019-05-14T16:43:58.680Z,102439.32
2019-05-14T16:45:34.138Z,102430.66
2019-05-14T16:47:09.880Z,102431.80
2019-05-14T16:48:45.339Z,102430.08
2019-05-14T16:50:20.067Z,102439.36
2019-05-14T16:51:55.282Z,102430.41
2019-05-14T16:53:29.889Z,102436.89
2019-05-14T16:55:20.436Z,102436.83
2019-05-14T16:56:41.794Z,102436.83
2019-05-14T16:58:19.613Z,102431.41
2019-05-14T16:59:53.417Z,102426.17
2019-05-14T17:01:32.855Z,102436.59
2019-05-14T17:03:08.179Z,102434.20
2019-05-14T17:04:43.027Z,102432.28
2019-05-14T17:06:18.760Z,102432.28
2019-05-14T17:07:54.176Z,102411.34
2019-05-14T17:09:28.892Z,102430.16
2019-05-14T17:11:04.089Z,102421.45
2019-05-14T17:12:52.736Z,102421.45
2019-05-14T17:14:18.169Z,102425.96
2019-05-14T17:15:52.167Z,102424.23
2019-05-14T17:17:27.371Z,102426.53
2019-05-14T17:19:02.025Z,102419.40
2019-05-14T17:20:39.442Z,102425.06
2019-05-14T17:22:25.333Z,102432.22
2019-05-14T17:23:50.775Z,102432.22
2019-05-14T17:25:29.546Z,102427.56
2019-05-14T17:27:02.397Z,102430.47
2019-05-14T17:28:40.112Z,102419.98
2019-05-14T17:30:14.102Z,102423.32
2019-05-14T17:31:49.454Z,102427.05
2019-05-14T17:33:24.726Z,102431.80
2019-05-14T17:34:59.368Z,102421.31
2019-05-14T17:36:34.588Z,102422.08
2019-05-14T17:38:09.387Z,102427.45
2019-05-14T17:39:44.757Z,102413.22
2019-05-14T17:41:19.787Z,102413.22
2019-05-14T17:42:55.078Z,102420.80
2019-05-14T17:44:30.077Z,102425.63
2019-05-14T17:46:05.307Z,102431.69
2019-05-14T17:47:40.322Z,102428.18
2019-05-14T17:49:15.501Z,102430.48
2019-05-14T17:50:50.152Z,102424.31
2019-05-14T17:52:25.410Z,102431.30
2019-05-14T17:54:00.085Z,102429.52
2019-05-14T17:55:46.402Z,102429.52
2019-05-14T17:57:11.695Z,102427.68
2019-05-14T17:58:48.926Z,102430.37
2019-05-14T18:00:23.892Z,102424.71
2019-05-14T18:01:59.169Z,102426.25
2019-05-14T18:03:34.078Z,102421.88
2019-05-14T18:05:09.868Z,102426.13
2019-05-14T18:06:44.717Z,102423.66
2019-05-14T18:08:19.917Z,102425.68